Meteorología y climatología de Navarra
Datos de la estación - Meteo Navarra

Estación de Sartaguda GN

Altitud 310 m.


Datos desde el 23/05/2020 hasta el 24/05/2020 en horario solar
Los datos son PROVISIONALES

Anterior Página 1 de 1 Siguiente Descargar: Formato para Excel 2000 o superior   Formato csv   Formato para OpenOffice Calc
Fecha Temperatura Humedad relativa Radiación global Insolación Precipitación Vel. viento 10 m Vel. viento 10 m Dir. viento 10 m
ºC % W/m² s l/m² m/s km/h º
23/05/2020 0:00 19.0 76 0.0 0 0.0 3.6 12.9 325
23/05/2020 0:10 18.9 76 0.0 0 0.0 3.8 13.6 330
23/05/2020 0:20 18.8 77 0.0 0 0.0 3.9 13.9 330
23/05/2020 0:30 18.6 77 0.0 0 0.0 3.3 11.8 324
23/05/2020 0:40 18.4 78 0.0 0 0.0 2.8 10.0 331
23/05/2020 0:50 18.2 78 0.0 0 0.0 2.9 10.5 315
23/05/2020 1:00 18.2 78 0.0 0 0.0 2.6 9.4 300
23/05/2020 1:10 18.2 78 0.0 0 0.0 3.2 11.4 304
23/05/2020 1:20 18.1 78 0.0 0 0.0 3.2 11.5 304
23/05/2020 1:30 18.1 78 0.0 0 0.0 3.6 13.1 313
23/05/2020 1:40 17.8 78 0.0 0 0.0 3.2 11.4 317
23/05/2020 1:50 17.8 79 0.0 0 0.0 3.0 10.7 309
23/05/2020 2:00 17.7 79 0.0 0 0.0 3.1 11.0 325
23/05/2020 2:10 17.6 79 0.0 0 0.0 3.0 10.6 332
23/05/2020 2:20 17.5 80 0.0 0 0.0 2.7 9.9 327
23/05/2020 2:30 17.5 80 0.0 0 0.0 2.4 8.6 328
23/05/2020 2:40 17.6 80 0.0 0 0.0 2.3 8.2 331
23/05/2020 2:50 17.6 79 0.0 0 0.0 2.7 9.8 330
23/05/2020 3:00 17.7 78 0.0 0 0.0 2.4 8.6 319
23/05/2020 3:10 17.6 78 0.0 0 0.0 2.2 7.8 313
23/05/2020 3:20 17.7 78 0.0 0 0.0 2.5 9.0 307
23/05/2020 3:30 17.8 78 0.0 0 0.0 2.3 8.2 306
23/05/2020 3:40 17.8 78 0.0 0 0.0 2.0 7.1 303
23/05/2020 3:50 17.8 78 0.0 0 0.0 2.3 8.2 307
23/05/2020 4:00 17.8 77 0.0 0 0.0 2.5 8.9 304
23/05/2020 4:10 17.8 77 0.0 0 0.0 2.2 7.8 293
23/05/2020 4:20 17.7 77 0.0 0 0.0 2.0 7.2 306
23/05/2020 4:30 17.6 77 0.0 0 0.0 1.9 6.9 298
23/05/2020 4:40 17.4 77 0.0 0 0.0 2.5 9.0 294
23/05/2020 4:50 17.4 77 0.0 0 0.0 2.2 7.8 296
23/05/2020 5:00 17.2 77 4.2 0 0.0 2.3 8.4 294
23/05/2020 5:10 17.3 77 17.4 0 0.0 2.6 9.2 304
23/05/2020 5:20 17.3 77 25.0 0 0.0 2.7 9.6 310
23/05/2020 5:30 17.3 77 30.1 0 0.0 2.4 8.6 310
23/05/2020 5:40 17.3 77 44.1 0 0.0 2.2 7.8 292
23/05/2020 5:50 17.4 76 63.5 0 0.0 3.5 12.7 282
23/05/2020 6:00 17.5 76 62.9 0 0.0 3.3 12.0 286
23/05/2020 6:10 17.6 76 66.3 0 0.0 3.3 11.9 288
23/05/2020 6:20 17.7 75 70.3 0 0.0 3.2 11.4 294
23/05/2020 6:30 17.7 75 75.4 0 0.0 2.5 9.0 298
23/05/2020 6:40 17.9 75 89.2 0 0.0 2.9 10.5 293
23/05/2020 6:50 17.9 75 99.3 0 0.0 2.6 9.4 288
23/05/2020 7:00 18.0 75 130.1 0 0.0 2.4 8.7 300
23/05/2020 7:10 18.2 74 149.6 0 0.0 2.6 9.5 297
23/05/2020 7:20 18.3 73 169.0 0 0.0 3.5 12.5 304
23/05/2020 7:30 18.4 72 186.4 0 0.0 3.7 13.4 307
23/05/2020 7:40 18.5 72 226.7 0 0.0 3.5 12.5 306
23/05/2020 7:50 18.8 71 272.4 204 0.0 3.7 13.4 302
23/05/2020 8:00 18.8 71 199.9 0 0.0 3.4 12.3 302
23/05/2020 8:10 18.8 71 210.6 0 0.0 3.3 11.9 311
23/05/2020 8:20 18.9 70 271.3 0 0.0 3.6 13.1 302
23/05/2020 8:30 19.0 69 225.5 0 0.0 3.3 11.9 305
23/05/2020 8:40 19.0 69 227.9 0 0.0 3.7 13.2 304
23/05/2020 8:50 19.2 69 350.8 268 0.0 3.4 12.1 307
23/05/2020 9:00 19.6 68 455.3 594 0.0 3.7 13.2 305
23/05/2020 9:10 20.0 66 584.2 600 0.0 3.7 13.4 308
23/05/2020 9:20 20.2 65 513.1 600 0.0 3.4 12.3 310
23/05/2020 9:30 20.4 65 525.3 600 0.0 3.3 11.8 294
23/05/2020 9:40 20.5 64 526.5 466 0.0 3.8 13.6 306
23/05/2020 9:50 20.5 64 404.2 124 0.0 3.9 14.1 293
23/05/2020 10:00 20.5 64 334.9 0 0.0 4.2 15.0 295
23/05/2020 10:10 20.3 64 409.4 68 0.0 4.4 15.8 299
23/05/2020 10:20 20.3 65 385.7 120 0.0 4.5 16.3 293
23/05/2020 10:30 20.1 65 227.2 0 0.0 4.9 17.6 303
23/05/2020 10:40 19.6 67 198.8 0 0.0 4.5 16.2 311
23/05/2020 10:50 19.6 64 270.9 0 0.0 4.8 17.3 318
23/05/2020 11:00 19.5 62 257.3 0 0.0 4.4 15.8 307
23/05/2020 11:10 19.5 62 226.2 0 0.0 4.1 14.7 311
23/05/2020 11:20 19.5 61 254.4 0 0.0 4.4 15.8 322
23/05/2020 11:30 19.8 61 369.3 0 0.0 3.5 12.7 323
23/05/2020 11:40 20.1 59 440.3 0 0.0 4.7 16.8 321
23/05/2020 11:50 20.2 59 397.6 0 0.0 4.5 16.1 319
23/05/2020 12:00 20.2 59 430.4 0 0.0 3.2 11.6 315
23/05/2020 12:10 20.7 57 475.2 0 0.0 3.9 14.1 328
23/05/2020 12:20 20.7 56 444.7 18 0.0 3.7 13.3 327
23/05/2020 12:30 20.9 56 558.1 500 0.0 4.3 15.5 331
23/05/2020 12:40 21.0 55 478.1 64 0.0 4.8 17.4 342
23/05/2020 12:50 21.0 56 482.1 204 0.0 3.5 12.5 333
23/05/2020 13:00 21.2 55 854.0 600 0.0 4.2 15.0 319
23/05/2020 13:10 21.7 54 739.7 600 0.0 3.8 13.5 319
23/05/2020 13:20 21.4 55 427.7 66 0.0 3.1 11.2 315
23/05/2020 13:30 21.2 56 365.7 0 0.0 3.3 12.0 315
23/05/2020 13:40 21.1 56 354.3 0 0.0 2.8 10.2 310
23/05/2020 13:50 21.2 55 423.3 34 0.0 3.6 12.9 316
23/05/2020 14:00 21.2 55 425.8 72 0.0 3.1 11.3 323
23/05/2020 14:10 21.4 54 469.2 354 0.0 4.2 15.1 336
23/05/2020 14:20 21.2 55 410.4 36 0.0 3.6 13.1 324
23/05/2020 14:30 21.1 55 338.4 0 0.0 4.6 16.4 334
23/05/2020 14:40 20.8 55 279.6 0 0.0 4.4 15.7 336
23/05/2020 14:50 20.6 56 237.9 0 0.0 3.7 13.2 333
23/05/2020 15:00 20.4 57 217.4 0 0.0 4.2 15.1 332
23/05/2020 15:10 20.3 58 180.5 0 0.0 4.5 16.1 344
23/05/2020 15:20 19.9 58 150.6 0 0.0 5.2 18.7 343
23/05/2020 15:30 19.3 58 141.5 0 0.0 5.2 18.8 343
23/05/2020 15:40 19.1 59 143.2 0 0.0 4.9 17.6 347
23/05/2020 15:50 18.9 59 162.6 0 0.0 5.3 19.1 341
23/05/2020 16:00 18.8 58 151.4 0 0.0 5.2 18.5 340
23/05/2020 16:10 18.6 59 123.5 0 0.0 4.9 17.5 335
23/05/2020 16:20 18.5 59 120.4 0 0.0 4.4 15.9 348
23/05/2020 16:30 18.5 60 138.3 0 0.0 4.6 16.6 354
23/05/2020 16:40 18.4 59 108.8 0 0.0 4.7 16.8 352
23/05/2020 16:50 18.1 60 99.3 0 0.0 4.6 16.7 346
23/05/2020 17:00 18.2 60 130.8 0 0.0 4.6 16.5 341
23/05/2020 17:10 18.1 60 94.5 0 0.0 4.4 15.9 337
23/05/2020 17:20 17.9 59 93.5 0 0.0 5.7 20.6 341
23/05/2020 17:30 17.8 59 118.1 0 0.0 4.5 16.1 338
23/05/2020 17:40 17.8 59 109.5 8 0.0 5.1 18.2 341
23/05/2020 17:50 17.8 59 116.4 94 0.0 5.5 19.9 343
23/05/2020 18:00 17.5 60 62.4 0 0.0 5.0 17.9 342
23/05/2020 18:10 17.1 62 54.3 0 0.0 5.4 19.5 338
23/05/2020 18:20 16.7 64 77.6 62 0.0 4.5 16.2 338
23/05/2020 18:30 16.6 64 117.3 320 0.0 5.7 20.3 340
23/05/2020 18:40 16.5 64 110.2 572 0.0 4.6 16.6 340
23/05/2020 18:50 16.3 64 67.0 340 0.0 5.0 18.1 340
23/05/2020 19:00 16.0 64 32.4 0 0.0 5.4 19.6 345
23/05/2020 19:10 15.7 65 21.1 0 0.0 5.1 18.5 349
23/05/2020 19:20 15.5 65 12.7 0 0.0 5.0 17.8 345
23/05/2020 19:30 15.4 66 0.0 0 0.0 4.9 17.5 343
23/05/2020 19:40 15.4 66 0.0 0 0.0 4.8 17.1 342
23/05/2020 19:50 15.2 66 0.0 0 0.0 4.2 15.2 328
23/05/2020 20:00 15.0 67 0.0 0 0.0 3.5 12.6 326
23/05/2020 20:10 14.8 68 0.0 0 0.0 3.1 11.3 322
23/05/2020 20:20 14.5 69 0.0 0 0.0 2.9 10.3 316
23/05/2020 20:30 14.6 69 0.0 0 0.0 3.3 12.0 329
23/05/2020 20:40 14.5 68 0.0 0 0.0 3.4 12.1 324
23/05/2020 20:50 14.3 68 0.0 0 0.0 3.6 12.8 332
23/05/2020 21:00 14.1 68 0.0 0 0.0 3.3 11.8 328
23/05/2020 21:10 13.9 67 0.0 0 0.0 2.9 10.4 326
23/05/2020 21:20 13.7 66 0.0 0 0.0 2.7 9.8 319
23/05/2020 21:30 13.4 67 0.0 0 0.0 2.4 8.8 319
23/05/2020 21:40 13.3 69 0.0 0 0.0 2.8 10.2 326
23/05/2020 21:50 13.1 69 0.0 0 0.0 3.0 10.8 329
23/05/2020 22:00 13.1 69 0.0 0 0.0 3.4 12.1 330
23/05/2020 22:10 13.0 70 0.0 0 0.0 3.4 12.3 334
23/05/2020 22:20 12.8 70 0.0 0 0.0 3.1 11.0 325
23/05/2020 22:30 12.5 71 0.0 0 0.0 3.2 11.4 330
23/05/2020 22:40 12.4 73 0.0 0 0.0 2.3 8.3 328
23/05/2020 22:50 12.2 73 0.0 0 0.0 2.6 9.2 327
23/05/2020 23:00 12.1 73 0.0 0 0.0 2.1 7.4 307
23/05/2020 23:10 11.8 76 0.0 0 0.0 1.9 6.7 294
23/05/2020 23:20 11.6 79 0.0 0 0.0 1.5 5.5 331
23/05/2020 23:30 11.4 79 0.0 0 0.0 1.2 4.2 337
23/05/2020 23:40 11.2 79 0.0 0 0.0 1.7 6.2 337
23/05/2020 23:50 11.0 79 0.0 0 0.0 2.1 7.5 350
Anterior Página 1 de 1 Siguiente

NOTA: Tipo de datos según el color:
   - Valores diarios o 10 minutos correctos
   - Valores diarios calculados a partir de un número de datos 10 minutos menor que 144 y mayor que 120, o de un número de datos semihorarios menor que 48 y mayor que 40 (caso de las estaciones de INTIA y del Ministerio)
   - Valores diez minutos estimados


Contacto        Enlaces        Aviso legal